Time;durP1;ratioP1;P1;durP2;ratioP2;P2;SDS_P1;SDS_P2;PMS_P1;PMS_P2;Temp;Humidity;BMP_temperature;BMP_pressure;BME280_temperature;BME280_humidity;BME280_pressure;Samples;Min_cycle;Max_cycle;Signal;HPM_P1;HPM_P2
2021/05/14 00:00:07;;;;;;;9.95;2.30;;;;;;;;;;6936614;28;20043;-87
2021/05/14 00:03:27;;;;;;;7.53;2.28;;;;;;;;;;6904233;28;20030;-88
2021/05/14 00:06:49;;;;;;;11.70;2.03;;;;;;;;;;6921161;28;20092;-88
2021/05/14 00:10:10;;;;;;;9.73;2.10;;;;;;;;;;6918795;28;20497;-88
2021/05/14 00:13:31;;;;;;;7.32;2.17;;;;;;;;;;6921224;28;20108;-87
2021/05/14 00:16:52;;;;;;;6.95;2.13;;;;;;;;;;6903967;28;20048;-88
2021/05/14 00:20:12;;;;;;;6.88;1.80;;;;;;;;;;6919198;28;20034;-86
2021/05/14 00:23:33;;;;;;;7.80;2.42;;;;;;;;;;6919089;28;20034;-87
2021/05/14 00:26:54;;;;;;;7.30;1.90;;;;;;;;;;6920438;28;20030;-91
2021/05/14 00:30:15;;;;;;;9.75;1.92;;;;;;;;;;6969739;23;20111;-78
2021/05/14 00:33:35;;;;;;;8.00;2.08;;;;;;;;;;6941919;28;20034;-78
2021/05/14 00:36:55;;;;;;;16.30;2.08;;;;;;;;;;6946304;28;20116;-77
2021/05/14 00:40:16;;;;;;;7.20;2.05;;;;;;;;;;6946452;28;20044;-76
2021/05/14 00:43:36;;;;;;;7.18;2.30;;;;;;;;;;6942628;28;20034;-77
2021/05/14 00:46:58;;;;;;;8.48;1.50;;;;;;;;;;6941238;28;20025;-76
2021/05/14 00:50:19;;;;;;;10.43;1.98;;;;;;;;;;6948234;28;20382;-77
2021/05/14 00:53:39;;;;;;;4.95;1.75;;;;;;;;;;6947209;28;20554;-77
2021/05/14 00:57:00;;;;;;;4.38;1.40;;;;;;;;;;6946550;28;20083;-77
2021/05/14 01:00:20;;;;;;;3.70;1.50;;;;;;;;;;6947140;28;20041;-77
2021/05/14 01:03:41;;;;;;;7.32;1.45;;;;;;;;;;6946982;28;20502;-78
2021/05/14 01:07:02;;;;;;;6.75;1.70;;;;;;;;;;6946050;28;20065;-77
2021/05/14 01:10:23;;;;;;;7.15;1.83;;;;;;;;;;6934078;28;20053;-78
2021/05/14 01:13:44;;;;;;;5.45;1.67;;;;;;;;;;6939382;28;20033;-78
2021/05/14 01:17:04;;;;;;;4.88;1.50;;;;;;;;;;6955806;28;20032;-78
2021/05/14 01:20:29;;;;;;;7.13;1.50;;;;;;;;;;6946914;28;20057;-78
2021/05/14 01:23:50;;;;;;;4.97;1.63;;;;;;;;;;6941735;28;20044;-79
2021/05/14 01:27:10;;;;;;;6.50;1.35;;;;;;;;;;6945941;28;20061;-79
2021/05/14 01:30:31;;;;;;;7.85;1.98;;;;;;;;;;6946380;28;20045;-79
2021/05/14 01:33:51;;;;;;;4.88;1.55;;;;;;;;;;6944100;28;20543;-78
2021/05/14 01:37:12;;;;;;;4.88;1.60;;;;;;;;;;6943688;28;20038;-78
2021/05/14 01:40:37;;;;;;;3.47;1.58;;;;;;;;;;6945443;28;20422;-78
2021/05/14 01:43:57;;;;;;;6.20;1.85;;;;;;;;;;6944858;28;20034;-78
2021/05/14 01:47:18;;;;;;;4.80;1.60;;;;;;;;;;6945969;28;20052;-78
2021/05/14 01:50:39;;;;;;;4.13;1.42;;;;;;;;;;6945025;28;20040;-77
2021/05/14 01:53:59;;;;;;;4.80;1.23;;;;;;;;;;6931114;28;20025;-77
2021/05/14 01:57:20;;;;;;;2.25;1.13;;;;;;;;;;6945694;28;20431;-78
2021/05/14 02:00:40;;;;;;;3.92;1.55;;;;;;;;;;6945488;28;20033;-78
2021/05/14 02:04:01;;;;;;;6.28;1.60;;;;;;;;;;6945862;28;20025;-78
2021/05/14 02:07:21;;;;;;;3.20;1.38;;;;;;;;;;6945237;28;20064;-76
2021/05/14 02:10:42;;;;;;;3.97;1.30;;;;;;;;;;6944838;28;20042;-78
2021/05/14 02:14:03;;;;;;;4.50;1.30;;;;;;;;;;6944611;28;20084;-77
2021/05/14 02:17:23;;;;;;;5.82;1.52;;;;;;;;;;6941986;28;20039;-76
2021/05/14 02:20:44;;;;;;;7.00;1.75;;;;;;;;;;6945755;28;20033;-77
2021/05/14 02:24:04;;;;;;;6.90;1.40;;;;;;;;;;6945701;28;20029;-77
2021/05/14 02:27:25;;;;;;;8.38;1.30;;;;;;;;;;6945104;28;20470;-77
2021/05/14 02:30:45;;;;;;;4.65;1.50;;;;;;;;;;6944372;28;20049;-77
2021/05/14 02:34:06;;;;;;;4.05;1.40;;;;;;;;;;6945384;28;20030;-78
2021/05/14 02:37:27;;;;;;;3.42;1.13;;;;;;;;;;6943821;28;20130;-78
2021/05/14 02:40:48;;;;;;;4.10;1.20;;;;;;;;;;6945077;28;20094;-78
2021/05/14 02:44:08;;;;;;;2.95;1.20;;;;;;;;;;6944759;28;20053;-77
2021/05/14 02:47:28;;;;;;;4.35;1.10;;;;;;;;;;6944435;28;20394;-78
2021/05/14 02:50:49;;;;;;;2.63;1.30;;;;;;;;;;6930406;28;20061;-78
2021/05/14 02:54:09;;;;;;;3.47;1.30;;;;;;;;;;6944779;28;20025;-78
2021/05/14 02:57:30;;;;;;;1.98;1.13;;;;;;;;;;6933936;28;20352;-77
2021/05/14 03:00:50;;;;;;;2.47;1.10;;;;;;;;;;6945417;28;20029;-77
2021/05/14 03:04:11;;;;;;;2.85;1.10;;;;;;;;;;6943170;28;20499;-78
2021/05/14 03:07:31;;;;;;;2.78;1.27;;;;;;;;;;6945301;28;20057;-77
2021/05/14 03:10:52;;;;;;;3.42;1.40;;;;;;;;;;6946606;28;20030;-77
2021/05/14 03:14:12;;;;;;;2.75;1.23;;;;;;;;;;6943804;28;20375;-78
2021/05/14 03:17:33;;;;;;;2.00;0.88;;;;;;;;;;6944960;28;20359;-78
2021/05/14 03:20:55;;;;;;;2.65;1.30;;;;;;;;;;6942775;28;20057;-77
2021/05/14 03:24:15;;;;;;;4.85;1.10;;;;;;;;;;6945734;28;20116;-77
2021/05/14 03:27:37;;;;;;;2.72;1.20;;;;;;;;;;6943470;28;20386;-77
2021/05/14 03:30:57;;;;;;;1.08;0.80;;;;;;;;;;6943730;28;20057;-78
2021/05/14 03:34:17;;;;;;;2.75;1.30;;;;;;;;;;6944379;28;20041;-78
2021/05/14 03:37:38;;;;;;;3.72;1.30;;;;;;;;;;6945432;28;20522;-79
2021/05/14 03:41:01;;;;;;;1.02;0.90;;;;;;;;;;6946076;28;20030;-78
2021/05/14 03:44:21;;;;;;;4.57;1.10;;;;;;;;;;6940540;28;20030;-78
2021/05/14 03:47:42;;;;;;;1.77;1.20;;;;;;;;;;6956897;28;20383;-78
2021/05/14 03:51:02;;;;;;;2.00;1.10;;;;;;;;;;6946913;28;20068;-79
2021/05/14 03:54:23;;;;;;;1.48;1.20;;;;;;;;;;6939449;28;20029;-78
2021/05/14 03:57:43;;;;;;;2.97;1.23;;;;;;;;;;6942852;28;20065;-78
2021/05/14 04:01:04;;;;;;;7.50;1.17;;;;;;;;;;6947490;28;20039;-79
2021/05/14 04:04:24;;;;;;;4.32;1.38;;;;;;;;;;6939793;28;20057;-78
2021/05/14 04:07:45;;;;;;;2.25;1.42;;;;;;;;;;6946512;28;20037;-78
2021/05/14 04:14:34;;;;;;;2.08;0.77;;;;;;;;;;6943759;28;20037;-78
2021/05/14 04:17:55;;;;;;;2.97;1.00;;;;;;;;;;6939368;28;20029;-78
2021/05/14 04:21:15;;;;;;;2.30;0.90;;;;;;;;;;6946181;28;20029;-78
2021/05/14 04:24:36;;;;;;;1.20;1.00;;;;;;;;;;6947893;28;20033;-78
2021/05/14 04:27:56;;;;;;;1.92;1.10;;;;;;;;;;6948174;28;20419;-77
2021/05/14 04:31:17;;;;;;;1.67;1.00;;;;;;;;;;6948162;28;20077;-78
2021/05/14 04:34:37;;;;;;;3.92;1.40;;;;;;;;;;6948460;28;20040;-77
2021/05/14 04:37:58;;;;;;;2.10;1.48;;;;;;;;;;6948237;28;20426;-78
2021/05/14 04:41:18;;;;;;;1.33;1.20;;;;;;;;;;6947832;28;20034;-78
2021/05/14 04:44:38;;;;;;;2.60;1.20;;;;;;;;;;6947713;28;20104;-78
2021/05/14 04:47:59;;;;;;;1.48;0.93;;;;;;;;;;6947572;28;20025;-77
2021/05/14 04:51:20;;;;;;;3.33;1.30;;;;;;;;;;6947785;28;20061;-77
2021/05/14 04:54:40;;;;;;;1.67;1.00;;;;;;;;;;6946036;28;20030;-78
2021/05/14 04:58:01;;;;;;;1.20;0.90;;;;;;;;;;6933604;28;20493;-78
2021/05/14 05:01:22;;;;;;;3.17;1.27;;;;;;;;;;6936339;28;20025;-78
2021/05/14 05:04:42;;;;;;;1.00;0.98;;;;;;;;;;6933526;28;20040;-78
2021/05/14 05:08:04;;;;;;;2.38;1.13;;;;;;;;;;6957846;28;20033;-78
2021/05/14 05:11:25;;;;;;;1.13;1.00;;;;;;;;;;6928188;28;20037;-79
2021/05/14 05:14:46;;;;;;;1.25;0.90;;;;;;;;;;6946945;28;20048;-77
2021/05/14 05:18:06;;;;;;;5.75;1.00;;;;;;;;;;6942151;28;20462;-80
2021/05/14 05:21:26;;;;;;;1.77;1.10;;;;;;;;;;6971745;28;20056;-77
2021/05/14 05:24:47;;;;;;;1.00;0.90;;;;;;;;;;6945603;28;20033;-78
2021/05/14 05:28:08;;;;;;;1.65;1.00;;;;;;;;;;6946161;28;20044;-81
2021/05/14 05:31:28;;;;;;;6.85;3.15;;;;;;;;;;6944647;28;20041;-81
2021/05/14 05:34:48;;;;;;;1.83;1.05;;;;;;;;;;6945826;28;20021;-81
2021/05/14 05:38:19;;;;;;;4.15;2.33;;;;;;;;;;6946585;28;20065;-81
2021/05/14 05:41:39;;;;;;;3.70;2.10;;;;;;;;;;6945505;28;20091;-79
2021/05/14 05:45:00;;;;;;;2.42;2.20;;;;;;;;;;6940689;28;20037;-81
2021/05/14 05:48:21;;;;;;;9.45;6.25;;;;;;;;;;6955319;28;20025;-79
2021/05/14 05:51:41;;;;;;;4.88;4.57;;;;;;;;;;6948993;28;20174;-79
2021/05/14 05:55:02;;;;;;;5.07;4.78;;;;;;;;;;6939344;28;20037;-79
2021/05/14 05:58:23;;;;;;;0.93;0.93;;;;;;;;;;6942004;28;20124;-79
2021/05/14 06:01:44;;;;;;;3.22;1.33;;;;;;;;;;6926506;28;20038;-78
2021/05/14 06:05:05;;;;;;;9.55;1.45;;;;;;;;;;6932695;28;20372;-78
2021/05/14 06:08:25;;;;;;;6.85;1.35;;;;;;;;;;6926517;28;20026;-82
2021/05/14 06:11:46;;;;;;;1.63;1.17;;;;;;;;;;6934871;28;20072;-79
2021/05/14 06:15:06;;;;;;;2.45;1.20;;;;;;;;;;6943837;28;20112;-83
2021/05/14 06:18:31;;;;;;;2.97;1.27;;;;;;;;;;6930160;28;20088;-82
2021/05/14 06:21:52;;;;;;;1.58;1.35;;;;;;;;;;6953113;28;20035;-83
2021/05/14 06:25:13;;;;;;;1.77;1.20;;;;;;;;;;6944851;28;20038;-84
2021/05/14 06:28:33;;;;;;;3.30;1.27;;;;;;;;;;6942317;28;20068;-82
2021/05/14 06:31:54;;;;;;;1.73;1.35;;;;;;;;;;6953332;28;20054;-82
2021/05/14 06:35:14;;;;;;;1.58;1.20;;;;;;;;;;6944780;28;20056;-81
2021/05/14 06:38:35;;;;;;;3.33;1.13;;;;;;;;;;6945667;28;20492;-83
2021/05/14 06:41:55;;;;;;;5.18;1.40;;;;;;;;;;6943362;28;20108;-83
2021/05/14 06:45:15;;;;;;;2.28;1.42;;;;;;;;;;6943391;28;20025;-82
2021/05/14 06:48:36;;;;;;;1.20;1.10;;;;;;;;;;6944693;28;20041;-81
2021/05/14 06:51:56;;;;;;;1.80;1.10;;;;;;;;;;6944304;28;20033;-82
2021/05/14 06:55:17;;;;;;;1.65;1.10;;;;;;;;;;6934064;28;20060;-81
2021/05/14 06:58:38;;;;;;;3.58;1.60;;;;;;;;;;6944191;28;20352;-79
2021/05/14 07:01:59;;;;;;;1.38;1.27;;;;;;;;;;6940573;28;20045;-86
2021/05/14 07:05:19;;;;;;;2.15;1.33;;;;;;;;;;6940579;28;20029;-86
2021/05/14 07:08:40;;;;;;;1.98;1.13;;;;;;;;;;6941286;28;20033;-85
2021/05/14 07:12:01;;;;;;;6.13;1.40;;;;;;;;;;6941203;28;20467;-85
2021/05/14 07:15:22;;;;;;;1.25;1.08;;;;;;;;;;6943502;28;20410;-84
2021/05/14 07:18:42;;;;;;;5.78;1.20;;;;;;;;;;6945406;28;20520;-84
2021/05/14 07:22:04;;;;;;;2.90;0.98;;;;;;;;;;6944448;28;20033;-83
2021/05/14 07:25:24;;;;;;;6.15;1.42;;;;;;;;;;6942708;28;20075;-83
2021/05/14 07:28:45;;;;;;;3.17;0.90;;;;;;;;;;6937210;28;20045;-84
2021/05/14 07:32:06;;;;;;;1.90;1.15;;;;;;;;;;6925699;28;20100;-82
2021/05/14 07:35:26;;;;;;;3.72;1.30;;;;;;;;;;6922143;28;20041;-83
2021/05/14 07:38:47;;;;;;;3.55;1.52;;;;;;;;;;6956191;28;20068;-82
2021/05/14 07:42:07;;;;;;;2.08;1.63;;;;;;;;;;6939993;28;20114;-80
2021/05/14 07:45:28;;;;;;;3.42;1.23;;;;;;;;;;6939148;28;20038;-80
2021/05/14 07:48:48;;;;;;;6.93;1.30;;;;;;;;;;6945258;28;20539;-81
2021/05/14 07:52:09;;;;;;;2.05;1.35;;;;;;;;;;6943679;28;20041;-81
2021/05/14 07:55:30;;;;;;;6.15;1.20;;;;;;;;;;6947539;28;20048;-82
2021/05/14 07:58:51;;;;;;;1.52;0.95;;;;;;;;;;6939619;28;20111;-82
2021/05/14 08:02:11;;;;;;;3.90;1.00;;;;;;;;;;6948970;28;20382;-80
2021/05/14 08:05:32;;;;;;;7.15;1.20;;;;;;;;;;6952286;28;20071;-81
2021/05/14 08:08:54;;;;;;;0.85;0.77;;;;;;;;;;6948504;28;20037;-80
2021/05/14 08:12:14;;;;;;;2.05;0.90;;;;;;;;;;6948382;28;20068;-81
2021/05/14 08:15:35;;;;;;;1.70;0.90;;;;;;;;;;6956759;28;20099;-80
2021/05/14 08:18:56;;;;;;;0.80;0.80;;;;;;;;;;6939717;28;20044;-79
2021/05/14 08:22:16;;;;;;;2.05;1.00;;;;;;;;;;6944182;28;20059;-80
2021/05/14 08:25:37;;;;;;;1.30;0.80;;;;;;;;;;6946844;28;20068;-80
2021/05/14 08:28:57;;;;;;;1.35;0.82;;;;;;;;;;6959266;28;20115;-81
2021/05/14 08:32:17;;;;;;;1.83;0.95;;;;;;;;;;6935499;28;20522;-80
2021/05/14 08:35:39;;;;;;;1.33;0.93;;;;;;;;;;6935140;28;20077;-79
2021/05/14 08:38:59;;;;;;;4.90;1.25;;;;;;;;;;6918262;28;20061;-80
2021/05/14 08:42:20;;;;;;;1.85;0.75;;;;;;;;;;6947239;28;20037;-80
2021/05/14 08:45:41;;;;;;;1.42;0.93;;;;;;;;;;6947711;28;20060;-80
2021/05/14 08:49:03;;;;;;;3.72;0.88;;;;;;;;;;6942230;28;20037;-80
2021/05/14 08:52:23;;;;;;;2.65;1.10;;;;;;;;;;6934258;28;20359;-81
2021/05/14 08:55:44;;;;;;;2.55;1.48;;;;;;;;;;6949001;28;20535;-79
2021/05/14 08:59:04;;;;;;;2.97;1.15;;;;;;;;;;6941629;28;20237;-80
2021/05/14 09:02:25;;;;;;;4.13;1.60;;;;;;;;;;6938686;28;20033;-81
2021/05/14 09:05:46;;;;;;;2.80;1.08;;;;;;;;;;6938215;28;20037;-79
2021/05/14 09:09:08;;;;;;;2.88;1.02;;;;;;;;;;6942878;28;20116;-80
2021/05/14 09:12:36;;;;;;;3.42;1.20;;;;;;;;;;6933565;28;20033;-82
2021/05/14 09:15:56;;;;;;;3.97;1.00;;;;;;;;;;6938983;28;20030;-83
2021/05/14 09:19:29;;;;;;;3.78;0.80;;;;;;;;;;6942930;28;20064;-82
2021/05/14 09:22:50;;;;;;;1.42;0.98;;;;;;;;;;6946050;28;20029;-83
2021/05/14 09:26:13;;;;;;;3.72;1.00;;;;;;;;;;6940211;28;20037;-82
2021/05/14 09:29:38;;;;;;;2.95;0.93;;;;;;;;;;6945516;28;20088;-82
2021/05/14 09:32:58;;;;;;;3.53;1.10;;;;;;;;;;6945857;28;20104;-81
2021/05/14 09:36:22;;;;;;;10.27;1.10;;;;;;;;;;6942861;28;20030;-82
2021/05/14 09:39:43;;;;;;;2.80;1.20;;;;;;;;;;6944768;28;20060;-81
2021/05/14 09:43:05;;;;;;;2.88;0.93;;;;;;;;;;6925758;28;20021;-81
2021/05/14 09:46:29;;;;;;;1.80;0.93;;;;;;;;;;6941334;28;20025;-81
2021/05/14 09:49:49;;;;;;;2.40;1.00;;;;;;;;;;6950316;28;20056;-82
2021/05/14 09:53:13;;;;;;;1.83;1.08;;;;;;;;;;6924695;28;20371;-80
2021/05/14 09:56:35;;;;;;;0.80;0.80;;;;;;;;;;6940830;28;20033;-80
2021/05/14 09:59:57;;;;;;;1.38;0.95;;;;;;;;;;6945353;28;20033;-80
2021/05/14 10:03:21;;;;;;;1.33;1.08;;;;;;;;;;6954342;28;20040;-80
2021/05/14 10:06:41;;;;;;;2.25;1.10;;;;;;;;;;6945834;28;20089;-81
2021/05/14 10:10:06;;;;;;;1.00;0.77;;;;;;;;;;6940264;28;20026;-81
2021/05/14 10:13:29;;;;;;;2.13;1.23;;;;;;;;;;6932205;28;20458;-81
2021/05/14 10:16:50;;;;;;;4.28;0.98;;;;;;;;;;6942879;28;20029;-83
2021/05/14 10:20:16;;;;;;;1.35;0.90;;;;;;;;;;6939927;28;20030;-80
2021/05/14 10:23:37;;;;;;;5.28;1.02;;;;;;;;;;6937952;28;20084;-83
2021/05/14 10:27:12;;;;;;;1.65;1.00;;;;;;;;;;6932266;28;20040;-83
2021/05/14 10:30:33;;;;;;;2.28;1.33;;;;;;;;;;6942486;28;20064;-83
2021/05/14 10:33:57;;;;;;;3.33;1.00;;;;;;;;;;6953251;28;20021;-84
2021/05/14 10:37:44;;;;;;;6.93;1.10;;;;;;;;;;6946734;28;20049;-83
2021/05/14 10:41:26;;;;;;;2.17;0.90;;;;;;;;;;6945907;28;20080;-82
2021/05/14 10:44:52;;;;;;;5.80;1.00;;;;;;;;;;6940992;28;20037;-81
2021/05/14 10:48:19;;;;;;;0.90;0.70;;;;;;;;;;6955100;28;20384;-80
2021/05/14 10:51:45;;;;;;;4.28;1.20;;;;;;;;;;6946794;28;20033;-81
2021/05/14 10:55:06;;;;;;;1.98;1.20;;;;;;;;;;6937319;28;20040;-80
2021/05/14 10:58:48;;;;;;;2.88;1.17;;;;;;;;;;6960943;28;20116;-80
2021/05/14 11:02:29;;;;;;;1.55;0.85;;;;;;;;;;6943873;28;20021;-81
2021/05/14 11:06:11;;;;;;;1.88;0.80;;;;;;;;;;6944102;28;20044;-80
2021/05/14 11:09:32;;;;;;;2.35;1.00;;;;;;;;;;6931390;28;20510;-80
2021/05/14 11:12:53;;;;;;;2.10;0.90;;;;;;;;;;6944623;28;20037;-80
2021/05/14 11:16:33;;;;;;;2.83;1.20;;;;;;;;;;6943352;28;20049;-80
2021/05/14 11:19:54;;;;;;;2.72;1.60;;;;;;;;;;6943544;28;20052;-80
2021/05/14 11:23:41;;;;;;;3.58;1.80;;;;;;;;;;6943015;28;20033;-82
2021/05/14 11:27:09;;;;;;;2.45;1.10;;;;;;;;;;6957359;28;20379;-81
2021/05/14 11:30:29;;;;;;;11.40;1.55;;;;;;;;;;6960458;28;20095;-80
2021/05/14 11:33:54;;;;;;;8.98;1.60;;;;;;;;;;6938632;28;20059;-80
2021/05/14 11:37:18;;;;;;;4.78;1.42;;;;;;;;;;6949256;28;20433;-80
2021/05/14 11:40:40;;;;;;;3.70;1.27;;;;;;;;;;6948218;28;20124;-80
2021/05/14 11:44:03;;;;;;;9.00;1.70;;;;;;;;;;6946071;28;20087;-82
2021/05/14 11:47:23;;;;;;;2.80;1.45;;;;;;;;;;6947125;28;20481;-81
2021/05/14 11:50:55;;;;;;;1.52;1.30;;;;;;;;;;6939924;28;20057;-81
2021/05/14 11:54:15;;;;;;;11.48;1.75;;;;;;;;;;6941185;28;20168;-81
2021/05/14 11:57:37;;;;;;;6.82;1.35;;;;;;;;;;6935081;28;20034;-81
2021/05/14 12:00:57;;;;;;;5.18;1.50;;;;;;;;;;6942243;28;20091;-81
2021/05/14 12:04:18;;;;;;;6.32;1.60;;;;;;;;;;6933469;28;20058;-81
2021/05/14 12:07:40;;;;;;;3.28;1.40;;;;;;;;;;6961956;28;20049;-81
2021/05/14 12:11:02;;;;;;;6.18;1.80;;;;;;;;;;6945238;28;20475;-81
2021/05/14 12:14:23;;;;;;;3.67;1.70;;;;;;;;;;6950204;28;20382;-81
2021/05/14 12:17:46;;;;;;;2.53;1.67;;;;;;;;;;6947425;28;20389;-80
2021/05/14 12:21:08;;;;;;;11.95;1.98;;;;;;;;;;6941499;28;20038;-77
2021/05/14 12:24:37;;;;;;;6.47;1.77;;;;;;;;;;6934209;28;20040;-78
2021/05/14 12:27:58;;;;;;;3.63;1.50;;;;;;;;;;6937021;28;20030;-77
2021/05/14 12:31:27;;;;;;;3.58;1.52;;;;;;;;;;7249831;23;20073;-88
2021/05/14 12:34:51;;;;;;;2.08;1.23;;;;;;;;;;6914664;28;20045;-88
2021/05/14 12:38:12;;;;;;;9.73;1.90;;;;;;;;;;6917666;28;20084;-88
2021/05/14 12:41:34;;;;;;;2.92;1.90;;;;;;;;;;6919344;28;20065;-85
2021/05/14 12:44:55;;;;;;;3.45;1.80;;;;;;;;;;6910580;28;20037;-85
2021/05/14 12:48:22;;;;;;;5.38;1.80;;;;;;;;;;6912397;28;20048;-85
2021/05/14 12:51:42;;;;;;;3.92;1.40;;;;;;;;;;6914484;28;20037;-83
2021/05/14 12:55:16;;;;;;;3.83;1.60;;;;;;;;;;6917831;28;20057;-85
2021/05/14 12:58:36;;;;;;;3.85;1.42;;;;;;;;;;6920448;28;20032;-84
2021/05/14 13:01:57;;;;;;;4.03;1.40;;;;;;;;;;6917639;28;20027;-84
2021/05/14 13:05:18;;;;;;;2.40;1.20;;;;;;;;;;6919318;28;20087;-84
2021/05/14 13:08:39;;;;;;;3.83;1.25;;;;;;;;;;6918474;28;20030;-84
2021/05/14 13:12:00;;;;;;;4.82;1.30;;;;;;;;;;6918499;28;20053;-84
2021/05/14 13:15:21;;;;;;;4.70;1.20;;;;;;;;;;6918424;28;20044;-84
2021/05/14 13:18:41;;;;;;;3.63;1.23;;;;;;;;;;6920022;28;20057;-83
2021/05/14 13:22:02;;;;;;;2.13;1.10;;;;;;;;;;6919418;28;20364;-83
2021/05/14 13:25:22;;;;;;;4.38;1.60;;;;;;;;;;6919299;28;20048;-83
2021/05/14 13:28:45;;;;;;;5.85;1.40;;;;;;;;;;6911377;28;20400;-84
2021/05/14 13:32:06;;;;;;;5.32;1.20;;;;;;;;;;6918569;28;20050;-84
2021/05/14 13:35:26;;;;;;;2.47;1.08;;;;;;;;;;6920719;28;20022;-85
2021/05/14 13:38:48;;;;;;;2.70;1.10;;;;;;;;;;6919614;28;20046;-84
2021/05/14 13:42:08;;;;;;;4.95;1.35;;;;;;;;;;6912273;28;20089;-84
2021/05/14 13:45:29;;;;;;;1.40;1.23;;;;;;;;;;6920552;28;20022;-83
2021/05/14 13:48:49;;;;;;;2.28;1.00;;;;;;;;;;6912157;28;20036;-85
2021/05/14 13:52:10;;;;;;;3.90;1.15;;;;;;;;;;6916477;28;20038;-84
2021/05/14 13:55:32;;;;;;;2.03;1.10;;;;;;;;;;6920161;28;20104;-83
2021/05/14 13:58:52;;;;;;;4.20;1.25;;;;;;;;;;6919687;28;20530;-83
2021/05/14 14:02:14;;;;;;;5.85;1.15;;;;;;;;;;6919281;28;20082;-85
2021/05/14 14:05:35;;;;;;;0.85;0.80;;;;;;;;;;6919441;28;20054;-82
2021/05/14 14:08:56;;;;;;;3.50;0.80;;;;;;;;;;6914870;28;20033;-84
2021/05/14 14:12:20;;;;;;;3.03;1.15;;;;;;;;;;6910084;28;20030;-85
2021/05/14 14:15:40;;;;;;;2.78;1.20;;;;;;;;;;6914801;28;20033;-84
2021/05/14 14:19:00;;;;;;;2.17;1.15;;;;;;;;;;6919773;28;20057;-84
2021/05/14 14:22:21;;;;;;;6.53;1.55;;;;;;;;;;6919190;28;20026;-85
2021/05/14 14:25:41;;;;;;;5.00;1.17;;;;;;;;;;6916922;28;20042;-84
2021/05/14 14:29:03;;;;;;;1.75;1.13;;;;;;;;;;6915141;28;20073;-84
2021/05/14 14:32:23;;;;;;;1.60;1.13;;;;;;;;;;6908005;28;20145;-85
2021/05/14 14:35:48;;;;;;;7.93;1.48;;;;;;;;;;6914155;28;20088;-84
2021/05/14 14:39:08;;;;;;;4.60;1.45;;;;;;;;;;6910776;28;20097;-84
2021/05/14 14:42:29;;;;;;;5.75;1.10;;;;;;;;;;6905941;28;20037;-89
2021/05/14 14:45:49;;;;;;;2.47;1.48;;;;;;;;;;6912682;28;20117;-90
2021/05/14 14:49:10;;;;;;;9.43;1.63;;;;;;;;;;6918645;28;20033;-86
2021/05/14 14:52:30;;;;;;;1.70;1.23;;;;;;;;;;6919723;28;20368;-86
2021/05/14 14:55:51;;;;;;;3.17;0.98;;;;;;;;;;6911898;28;20030;-87
2021/05/14 14:59:11;;;;;;;4.57;1.27;;;;;;;;;;6914853;28;20088;-84
2021/05/14 15:02:38;;;;;;;6.47;1.20;;;;;;;;;;6918340;28;20080;-86
2021/05/14 15:06:00;;;;;;;2.33;1.20;;;;;;;;;;6918024;28;20041;-86
2021/05/14 15:09:20;;;;;;;11.40;1.50;;;;;;;;;;6919627;28;20022;-86
2021/05/14 15:12:41;;;;;;;3.35;1.27;;;;;;;;;;6916589;28;20030;-87
2021/05/14 15:16:01;;;;;;;6.60;1.42;;;;;;;;;;6893838;28;20034;-88
2021/05/14 15:19:22;;;;;;;7.68;1.42;;;;;;;;;;6906729;28;20097;-88
2021/05/14 15:22:42;;;;;;;4.65;1.45;;;;;;;;;;6916305;28;20046;-91
2021/05/14 15:26:03;;;;;;;8.07;1.27;;;;;;;;;;6916249;28;20038;-88
2021/05/14 15:29:24;;;;;;;3.25;1.30;;;;;;;;;;6911164;28;20030;-86
2021/05/14 15:32:44;;;;;;;7.13;1.00;;;;;;;;;;6899873;28;20145;-87
2021/05/14 15:36:05;;;;;;;5.13;1.27;;;;;;;;;;6910823;28;20039;-87
2021/05/14 15:39:26;;;;;;;8.35;1.77;;;;;;;;;;6914700;28;20443;-89
2021/05/14 15:42:46;;;;;;;4.05;1.40;;;;;;;;;;6916194;28;20034;-88
2021/05/14 15:46:08;;;;;;;4.55;1.33;;;;;;;;;;6915418;28;20026;-87
2021/05/14 15:49:28;;;;;;;3.42;1.30;;;;;;;;;;6915139;28;20068;-83
2021/05/14 15:52:50;;;;;;;2.53;0.98;;;;;;;;;;6913688;28;20050;-85
2021/05/14 15:56:10;;;;;;;4.05;1.50;;;;;;;;;;6914840;28;20036;-85
2021/05/14 15:59:31;;;;;;;4.47;1.27;;;;;;;;;;6915251;28;20094;-88
2021/05/14 16:02:57;;;;;;;5.32;1.15;;;;;;;;;;6912869;28;20041;-86
2021/05/14 16:06:17;;;;;;;4.93;1.35;;;;;;;;;;6917914;28;20033;-89
2021/05/14 16:09:37;;;;;;;4.28;1.38;;;;;;;;;;6912217;28;20060;-86
2021/05/14 16:12:58;;;;;;;3.90;0.88;;;;;;;;;;6917657;28;20470;-87
2021/05/14 16:16:19;;;;;;;5.63;1.40;;;;;;;;;;6901602;28;20464;-87
2021/05/14 16:19:47;;;;;;;6.15;1.30;;;;;;;;;;6924334;28;20030;-88
2021/05/14 16:23:09;;;;;;;2.78;1.23;;;;;;;;;;6916169;28;20470;-86
2021/05/14 16:26:30;;;;;;;9.45;1.30;;;;;;;;;;6918304;28;20101;-86
2021/05/14 16:29:54;;;;;;;2.97;1.30;;;;;;;;;;6914880;28;20053;-86
2021/05/14 16:33:15;;;;;;;3.60;1.30;;;;;;;;;;6915637;28;20514;-87
2021/05/14 16:36:36;;;;;;;1.23;1.10;;;;;;;;;;6908469;28;20034;-85
2021/05/14 16:39:57;;;;;;;5.90;1.50;;;;;;;;;;6911672;28;20124;-86
2021/05/14 16:43:17;;;;;;;3.13;1.10;;;;;;;;;;6911901;28;20056;-88
2021/05/14 16:46:38;;;;;;;4.28;1.23;;;;;;;;;;6914218;28;20026;-86
2021/05/14 16:49:58;;;;;;;2.40;1.10;;;;;;;;;;6915936;28;20120;-86
2021/05/14 16:53:27;;;;;;;2.50;1.30;;;;;;;;;;6920502;28;20026;-86
2021/05/14 16:56:48;;;;;;;3.55;1.35;;;;;;;;;;6914157;28;20062;-86
2021/05/14 17:00:10;;;;;;;3.72;1.20;;;;;;;;;;6910935;28;20026;-85
2021/05/14 17:03:31;;;;;;;5.20;1.27;;;;;;;;;;6927480;28;20049;-88
2021/05/14 17:06:58;;;;;;;5.20;1.20;;;;;;;;;;6919996;28;20042;-85
2021/05/14 17:10:18;;;;;;;8.23;1.77;;;;;;;;;;6926149;28;20026;-86
2021/05/14 17:13:39;;;;;;;4.15;1.10;;;;;;;;;;6919227;28;20033;-87
2021/05/14 17:17:00;;;;;;;2.38;1.17;;;;;;;;;;6930902;28;20030;-86
2021/05/14 17:20:22;;;;;;;3.40;1.17;;;;;;;;;;6905978;28;20041;-86
2021/05/14 17:23:46;;;;;;;6.82;1.42;;;;;;;;;;6908907;28;20484;-86
2021/05/14 17:27:07;;;;;;;4.30;1.38;;;;;;;;;;6914959;28;20037;-86
2021/05/14 17:30:27;;;;;;;4.03;1.13;;;;;;;;;;6917249;28;20550;-89
2021/05/14 17:33:48;;;;;;;1.60;1.40;;;;;;;;;;6915502;28;20438;-85
2021/05/14 17:37:08;;;;;;;4.55;1.70;;;;;;;;;;6922928;28;20037;-86
2021/05/14 17:40:29;;;;;;;5.32;1.83;;;;;;;;;;6897734;28;20026;-85
2021/05/14 17:43:49;;;;;;;3.47;2.08;;;;;;;;;;6892973;28;20033;-85
2021/05/14 17:47:12;;;;;;;10.27;2.58;;;;;;;;;;6917454;28;20034;-87
2021/05/14 17:50:32;;;;;;;5.43;2.38;;;;;;;;;;6925248;28;20042;-87
2021/05/14 17:53:53;;;;;;;6.93;3.10;;;;;;;;;;6917882;28;20091;-85
2021/05/14 17:57:13;;;;;;;7.22;3.28;;;;;;;;;;6918547;28;20033;-85
2021/05/14 18:00:34;;;;;;;14.35;4.40;;;;;;;;;;6912892;28;20045;-88
2021/05/14 18:03:55;;;;;;;10.13;5.18;;;;;;;;;;6917272;28;20483;-84
2021/05/14 18:07:15;;;;;;;12.55;5.13;;;;;;;;;;6916267;28;20025;-86
2021/05/14 18:10:36;;;;;;;14.63;5.93;;;;;;;;;;6915854;28;20426;-85
2021/05/14 18:13:56;;;;;;;10.43;5.80;;;;;;;;;;6910876;28;20452;-84
2021/05/14 18:17:23;;;;;;;13.23;7.07;;;;;;;;;;6910245;28;20133;-84
2021/05/14 18:20:43;;;;;;;14.15;6.40;;;;;;;;;;6912724;28;20124;-85
2021/05/14 18:24:04;;;;;;;15.30;6.30;;;;;;;;;;6912409;28;20431;-84
2021/05/14 18:27:24;;;;;;;15.07;7.57;;;;;;;;;;6916509;28;20452;-83
2021/05/14 18:30:45;;;;;;;14.90;7.43;;;;;;;;;;6914034;28;20049;-83
2021/05/14 18:34:09;;;;;;;13.77;7.00;;;;;;;;;;6915792;28;20443;-84
2021/05/14 18:37:29;;;;;;;19.55;8.60;;;;;;;;;;6916331;28;20387;-85
2021/05/14 18:40:49;;;;;;;25.02;9.27;;;;;;;;;;6915709;28;20476;-85
2021/05/14 18:44:10;;;;;;;28.27;8.63;;;;;;;;;;6916230;28;20112;-85
2021/05/14 18:47:31;;;;;;;32.75;9.32;;;;;;;;;;6915043;28;20105;-84
2021/05/14 18:50:52;;;;;;;29.40;8.50;;;;;;;;;;6916378;28;20087;-85
2021/05/14 18:54:12;;;;;;;26.02;8.70;;;;;;;;;;6912888;28;20060;-85
2021/05/14 18:57:33;;;;;;;19.95;7.78;;;;;;;;;;6909995;28;20050;-85
2021/05/14 19:00:54;;;;;;;21.20;8.18;;;;;;;;;;6898780;28;20045;-85
2021/05/14 19:04:14;;;;;;;22.27;9.50;;;;;;;;;;6911143;28;20040;-84
2021/05/14 19:07:35;;;;;;;28.35;9.93;;;;;;;;;;6913038;28;20037;-87
2021/05/14 19:10:56;;;;;;;20.50;8.88;;;;;;;;;;6912058;28;20220;-82
2021/05/14 19:14:16;;;;;;;21.38;9.60;;;;;;;;;;6904955;28;20041;-84
2021/05/14 19:17:38;;;;;;;21.83;10.45;;;;;;;;;;6900376;28;20038;-85
2021/05/14 19:21:05;;;;;;;28.23;10.57;;;;;;;;;;6911472;28;20040;-86
2021/05/14 19:24:31;;;;;;;33.83;11.73;;;;;;;;;;6910895;28;20037;-84
2021/05/14 19:50:02;;;;;;;27.63;11.13;;;;;;;;;;6916257;28;20042;-84
2021/05/14 19:53:23;;;;;;;30.70;12.27;;;;;;;;;;6905733;28;20042;-86
2021/05/14 19:56:45;;;;;;;23.80;11.07;;;;;;;;;;6917915;28;20038;-85
2021/05/14 20:00:07;;;;;;;28.38;11.52;;;;;;;;;;6923113;28;20038;-88
2021/05/14 20:03:28;;;;;;;26.52;11.77;;;;;;;;;;6923974;28;20045;-86
2021/05/14 20:06:48;;;;;;;24.63;11.25;;;;;;;;;;6915759;28;20037;-86
2021/05/14 20:10:09;;;;;;;43.13;11.23;;;;;;;;;;6915162;28;20399;-87
2021/05/14 20:13:30;;;;;;;32.90;11.13;;;;;;;;;;6913078;28;20041;-87
2021/05/14 20:16:51;;;;;;;24.20;11.02;;;;;;;;;;6913895;28;20105;-86
2021/05/14 20:20:12;;;;;;;25.80;10.70;;;;;;;;;;6909049;28;20034;-92
2021/05/14 20:23:33;;;;;;;22.10;10.77;;;;;;;;;;6917731;28;20033;-86
2021/05/14 20:26:53;;;;;;;24.90;10.38;;;;;;;;;;6910468;28;20422;-87
2021/05/14 20:30:14;;;;;;;24.27;10.43;;;;;;;;;;6916558;28;20510;-86